createdAt,value
2019-04-19T00:00:54.329Z,11.68
2019-04-19T00:03:28.555Z,11.65
2019-04-19T00:06:05.087Z,11.66
2019-04-19T00:08:58.908Z,11.62
2019-04-19T00:11:25.918Z,11.59
2019-04-19T00:13:51.475Z,11.58
2019-04-19T00:16:25.736Z,11.57
2019-04-19T00:19:20.128Z,11.53
2019-04-19T00:22:01.921Z,11.48
2019-04-19T00:24:12.118Z,11.47
2019-04-19T00:26:46.735Z,11.43
2019-04-19T00:29:28.401Z,11.39
2019-04-19T00:32:14.080Z,11.35
2019-04-19T00:34:31.755Z,11.29
2019-04-19T00:37:05.770Z,11.26
2019-04-19T00:40:11.796Z,11.19
2019-04-19T00:42:57.212Z,11.11
2019-04-19T00:46:16.071Z,11.06
2019-04-19T00:48:47.451Z,10.96
2019-04-19T00:51:17.510Z,10.88
2019-04-19T00:53:57.218Z,10.83
2019-04-19T00:56:32.606Z,10.80
2019-04-19T00:59:00.701Z,10.72
2019-04-19T01:01:32.197Z,10.71
2019-04-19T01:04:15.585Z,10.73
2019-04-19T01:06:48.452Z,10.71
2019-04-19T01:09:30.973Z,10.64
2019-04-19T01:12:07.916Z,10.59
2019-04-19T01:14:38.228Z,10.56
2019-04-19T01:17:16.565Z,10.53
2019-04-19T01:19:47.205Z,10.54
2019-04-19T01:22:22.078Z,10.53
2019-04-19T01:24:52.464Z,10.50
2019-04-19T01:27:29.483Z,10.47
2019-04-19T01:30:02.928Z,10.42
2019-04-19T01:32:47.047Z,10.44
2019-04-19T01:35:16.681Z,10.45
2019-04-19T01:37:54.104Z,10.46
2019-04-19T01:40:44.017Z,10.49
2019-04-19T01:43:19.035Z,10.44
2019-04-19T01:46:13.034Z,10.45
2019-04-19T01:49:05.650Z,10.42
2019-04-19T01:51:58.654Z,10.44
2019-04-19T01:54:33.390Z,10.44
2019-04-19T01:56:58.252Z,10.46
2019-04-19T01:59:33.284Z,10.43
2019-04-19T02:02:11.682Z,10.47
2019-04-19T02:04:41.371Z,10.48
2019-04-19T02:07:19.694Z,10.47
2019-04-19T02:10:05.300Z,10.47
2019-04-19T02:12:39.395Z,10.47
2019-04-19T02:15:07.952Z,10.43
2019-04-19T02:17:43.093Z,10.42
2019-04-19T02:20:14.074Z,10.38
2019-04-19T02:22:55.149Z,10.31
2019-04-19T02:25:27.893Z,10.31
2019-04-19T02:28:00.578Z,10.29
2019-04-19T02:30:47.942Z,10.22
2019-04-19T02:33:39.258Z,10.12
2019-04-19T02:36:19.169Z,10.07
2019-04-19T02:39:00.685Z,10.07
2019-04-19T02:41:26.591Z,10.02
2019-04-19T02:44:03.945Z,9.92
2019-04-19T02:46:45.419Z,9.87
2019-04-19T02:51:48.253Z,9.83
2019-04-19T02:54:28.560Z,9.83
2019-04-19T02:57:10.207Z,9.76
2019-04-19T03:00:04.478Z,9.76
2019-04-19T03:02:50.233Z,9.71
2019-04-19T03:07:21.744Z,9.64
2019-04-19T03:09:55.689Z,9.58
2019-04-19T03:12:48.662Z,9.57
2019-04-19T03:15:18.771Z,9.58
2019-04-19T03:18:03.546Z,9.53
2019-04-19T03:20:34.569Z,9.46
2019-04-19T03:23:10.780Z,9.36
2019-04-19T03:25:45.261Z,9.28
2019-04-19T03:28:19.774Z,9.24
2019-04-19T03:31:08.227Z,9.18
2019-04-19T03:36:12.004Z,9.22
2019-04-19T03:38:45.645Z,9.17
2019-04-19T03:41:43.207Z,9.11
2019-04-19T03:44:21.095Z,9.15
2019-04-19T03:47:06.800Z,9.16
2019-04-19T03:52:15.630Z,9.07
2019-04-19T03:54:41.231Z,9.02
2019-04-19T03:57:16.732Z,8.97
2019-04-19T03:59:37.241Z,8.89
2019-04-19T04:02:15.293Z,8.89
2019-04-19T04:04:52.675Z,8.83
2019-04-19T04:07:27.079Z,8.88
2019-04-19T04:10:07.908Z,8.87
2019-04-19T04:12:55.736Z,8.87
2019-04-19T04:16:02.780Z,8.86
2019-04-19T04:18:19.644Z,8.83
2019-04-19T04:20:57.285Z,8.79
2019-04-19T04:23:36.439Z,8.73
2019-04-19T04:26:11.465Z,8.73
2019-04-19T04:28:52.547Z,8.71
2019-04-19T04:31:24.517Z,8.56
2019-04-19T04:34:00.808Z,8.56
2019-04-19T04:36:45.104Z,8.56
2019-04-19T04:39:03.496Z,8.53
2019-04-19T04:41:37.661Z,8.61
2019-04-19T04:44:29.484Z,8.57
2019-04-19T04:47:31.372Z,8.57
2019-04-19T04:50:19.461Z,8.63
2019-04-19T04:52:37.037Z,8.66
2019-04-19T04:55:24.284Z,8.62
2019-04-19T04:58:02.469Z,8.62
2019-04-19T05:00:44.091Z,8.64
2019-04-19T05:03:30.534Z,8.66
2019-04-19T05:06:07.775Z,8.67
2019-04-19T05:08:38.877Z,8.70
2019-04-19T05:11:16.745Z,8.70
2019-04-19T05:13:51.430Z,8.72
2019-04-19T05:16:35.280Z,8.78
2019-04-19T05:19:00.571Z,8.82
2019-04-19T05:21:37.356Z,8.87
2019-04-19T05:24:15.035Z,8.90
2019-04-19T05:26:52.484Z,8.95
2019-04-19T05:29:17.550Z,9.06
2019-04-19T05:31:46.696Z,9.09
2019-04-19T05:34:36.279Z,9.09
2019-04-19T05:37:10.625Z,9.16
2019-04-19T05:40:11.109Z,9.21
2019-04-19T05:42:56.495Z,9.24
2019-04-19T05:45:46.828Z,9.29
2019-04-19T05:48:00.536Z,9.32
2019-04-19T05:50:56.749Z,9.42
2019-04-19T05:53:18.116Z,9.46
2019-04-19T05:55:41.192Z,9.54
2019-04-19T05:58:24.140Z,9.67
2019-04-19T06:01:04.571Z,9.70
2019-04-19T06:03:43.917Z,9.82
2019-04-19T06:06:26.130Z,9.90
2019-04-19T06:08:39.267Z,9.97
2019-04-19T06:11:15.305Z,10.13
2019-04-19T06:14:02.844Z,10.24
2019-04-19T06:16:41.629Z,10.31
2019-04-19T06:19:26.799Z,10.43
2019-04-19T06:21:53.450Z,10.51
2019-04-19T06:24:40.253Z,10.63
2019-04-19T06:27:17.718Z,10.76
2019-04-19T06:29:50.270Z,10.88
2019-04-19T06:32:30.855Z,11.02
2019-04-19T06:34:58.087Z,11.10
2019-04-19T06:37:19.688Z,11.24
2019-04-19T06:40:02.822Z,11.33
2019-04-19T06:42:35.810Z,11.46
2019-04-19T06:45:18.923Z,11.58
2019-04-19T06:47:47.568Z,11.68
2019-04-19T06:50:17.133Z,11.76
2019-04-19T06:52:48.952Z,11.90
2019-04-19T06:55:28.216Z,12.04
2019-04-19T06:58:11.597Z,12.15
2019-04-19T07:00:49.556Z,12.31
2019-04-19T07:03:14.378Z,12.46
2019-04-19T07:06:06.069Z,12.60
2019-04-19T07:09:04.092Z,12.69
2019-04-19T07:11:21.640Z,12.86
2019-04-19T07:13:45.079Z,12.99
2019-04-19T07:16:35.006Z,13.13
2019-04-19T07:19:07.947Z,13.27
2019-04-19T07:21:44.008Z,13.34
2019-04-19T07:24:28.204Z,13.48
2019-04-19T07:26:52.450Z,13.63
2019-04-19T07:29:10.633Z,13.75
2019-04-19T07:31:44.974Z,13.90
2019-04-19T07:34:37.234Z,14.06
2019-04-19T07:37:14.714Z,14.25
2019-04-19T07:39:55.665Z,14.38
2019-04-19T07:42:38.812Z,14.50
2019-04-19T07:45:05.303Z,14.62
2019-04-19T07:47:47.429Z,14.78
2019-04-19T07:50:22.654Z,14.98
2019-04-19T07:52:55.415Z,15.15
2019-04-19T07:55:26.767Z,15.28
2019-04-19T07:58:30.373Z,15.43
2019-04-19T08:01:12.143Z,15.64
2019-04-19T08:03:47.839Z,15.85
2019-04-19T08:06:18.977Z,16.02
2019-04-19T08:08:57.100Z,16.26
2019-04-19T08:11:51.320Z,16.51
2019-04-19T08:14:00.939Z,16.74
2019-04-19T08:17:22.352Z,17.03
2019-04-19T08:29:22.431Z,22.72
2019-04-19T08:31:44.482Z,23.54
2019-04-19T08:34:21.726Z,24.72
2019-04-19T08:37:00.021Z,26.21
2019-04-19T08:39:45.692Z,27.20
2019-04-19T08:42:28.598Z,27.70
2019-04-19T08:44:52.491Z,28.32
2019-04-19T08:48:04.739Z,28.79
2019-04-19T08:50:35.988Z,29.48
2019-04-19T08:53:26.780Z,30.06
2019-04-19T08:56:00.752Z,30.74
2019-04-19T08:58:36.386Z,30.57
2019-04-19T09:01:18.997Z,30.62
2019-04-19T09:03:54.033Z,30.39
2019-04-19T09:08:58.163Z,30.05
2019-04-19T09:11:33.693Z,30.62
2019-04-19T09:14:13.526Z,30.47
2019-04-19T09:16:51.229Z,31.40
2019-04-19T09:19:37.519Z,31.66
2019-04-19T09:21:55.887Z,31.26
2019-04-19T09:24:26.999Z,30.63
2019-04-19T09:27:05.981Z,31.29
2019-04-19T09:29:45.047Z,31.67
2019-04-19T09:32:10.279Z,31.34
2019-04-19T09:34:43.978Z,31.30
2019-04-19T09:37:21.675Z,31.94
2019-04-19T09:40:00.769Z,31.94
2019-04-19T09:42:37.871Z,31.30
2019-04-19T09:45:02.626Z,31.84
2019-04-19T09:47:36.013Z,32.66
2019-04-19T09:50:21.188Z,31.96
2019-04-19T09:53:10.926Z,31.23
2019-04-19T09:55:42.044Z,31.61
2019-04-19T09:58:19.797Z,31.90
2019-04-19T10:00:33.986Z,32.21
2019-04-19T10:03:18.749Z,32.40
2019-04-19T10:05:44.635Z,32.71
2019-04-19T10:08:19.723Z,33.25
2019-04-19T10:10:54.777Z,33.46
2019-04-19T10:13:30.023Z,32.71
2019-04-19T10:16:14.740Z,32.84
2019-04-19T10:18:53.972Z,33.41
2019-04-19T10:21:33.392Z,33.59
2019-04-19T10:24:11.747Z,33.74
2019-04-19T10:26:58.985Z,33.89
2019-04-19T10:29:38.143Z,33.48
2019-04-19T10:32:16.815Z,32.79
2019-04-19T10:34:50.593Z,32.58
2019-04-19T10:37:25.932Z,33.12
2019-04-19T10:39:59.833Z,33.33
2019-04-19T10:42:33.671Z,33.86
2019-04-19T10:45:10.076Z,33.97
2019-04-19T10:47:44.223Z,33.32
2019-04-19T10:50:29.399Z,33.64
2019-04-19T10:52:56.479Z,33.00
2019-04-19T10:55:36.267Z,33.17
2019-04-19T10:58:11.520Z,33.24
2019-04-19T11:00:45.413Z,33.09
2019-04-19T11:03:19.436Z,33.13
2019-04-19T11:05:54.520Z,32.74
2019-04-19T11:08:28.736Z,32.83
2019-04-19T11:11:03.608Z,32.43
2019-04-19T11:13:38.139Z,31.75
2019-04-19T11:16:12.213Z,31.46
2019-04-19T11:18:47.652Z,31.50
2019-04-19T11:21:21.706Z,31.89
2019-04-19T11:23:55.785Z,33.45
2019-04-19T11:26:30.568Z,33.11
2019-04-19T11:29:04.384Z,33.25
2019-04-19T11:32:04.429Z,33.31
2019-04-19T11:34:38.960Z,33.33
2019-04-19T11:37:14.107Z,32.31
2019-04-19T11:39:48.751Z,32.17
2019-04-19T11:42:23.328Z,32.31
2019-04-19T11:44:57.482Z,32.60
2019-04-19T11:47:31.181Z,32.74
2019-04-19T11:50:06.474Z,32.52
2019-04-19T11:53:06.194Z,33.05
2019-04-19T11:55:42.653Z,33.17
2019-04-19T11:58:17.002Z,33.43
2019-04-19T12:01:03.712Z,32.93
2019-04-19T12:03:40.300Z,32.78
2019-04-19T12:06:14.335Z,32.76
2019-04-19T12:08:49.620Z,33.04
2019-04-19T12:11:24.301Z,31.94
2019-04-19T12:13:58.422Z,31.57
2019-04-19T12:16:32.900Z,32.44
2019-04-19T12:19:07.101Z,33.20
2019-04-19T12:21:41.321Z,32.48
2019-04-19T12:24:15.067Z,32.14
2019-04-19T12:26:49.480Z,31.98
2019-04-19T12:29:30.042Z,32.20
2019-04-19T12:31:58.868Z,31.94
2019-04-19T12:34:32.961Z,31.27
2019-04-19T12:37:07.021Z,31.99
2019-04-19T12:39:41.183Z,32.91
2019-04-19T12:42:31.856Z,32.75
2019-04-19T12:45:08.208Z,33.20
2019-04-19T12:47:42.973Z,33.01
2019-04-19T12:50:17.949Z,33.07
2019-04-19T12:52:52.179Z,33.23
2019-04-19T12:55:28.065Z,33.72
2019-04-19T12:58:04.078Z,33.58
2019-04-19T13:01:01.787Z,33.07
2019-04-19T13:03:54.768Z,33.67
2019-04-19T13:06:31.514Z,33.69
2019-04-19T13:09:11.087Z,33.30
2019-04-19T13:11:45.118Z,33.27
2019-04-19T13:14:19.653Z,32.75
2019-04-19T13:16:54.465Z,32.62
2019-04-19T13:19:29.110Z,32.57
2019-04-19T13:22:02.969Z,32.55
2019-04-19T13:24:36.733Z,32.46
2019-04-19T13:27:11.589Z,32.48
2019-04-19T13:29:45.886Z,32.09
2019-04-19T13:32:20.076Z,32.70
2019-04-19T13:34:54.874Z,33.48
2019-04-19T13:37:45.251Z,33.49
2019-04-19T13:40:38.637Z,33.97
2019-04-19T13:43:13.090Z,33.55
2019-04-19T13:45:47.400Z,32.54
2019-04-19T13:48:22.783Z,32.88
2019-04-19T13:50:56.675Z,33.25
2019-04-19T13:53:30.905Z,33.88
2019-04-19T13:56:06.541Z,33.75
2019-04-19T13:58:40.304Z,33.03
2019-04-19T14:01:14.567Z,33.25
2019-04-19T14:03:48.436Z,33.67
2019-04-19T14:06:24.448Z,34.28
2019-04-19T14:08:58.355Z,34.31
2019-04-19T14:11:33.095Z,33.42
2019-04-19T14:14:07.812Z,32.78
2019-04-19T14:16:41.980Z,32.38
2019-04-19T14:19:16.402Z,33.03
2019-04-19T14:21:50.913Z,32.63
2019-04-19T14:24:25.217Z,32.64
2019-04-19T14:27:00.749Z,32.68
2019-04-19T14:29:35.326Z,32.61
2019-04-19T14:32:09.457Z,32.91
2019-04-19T14:34:43.737Z,32.95
2019-04-19T14:37:18.810Z,33.16
2019-04-19T14:39:52.715Z,32.89
2019-04-19T14:42:28.424Z,33.30
2019-04-19T14:45:02.155Z,32.70
2019-04-19T14:47:37.072Z,32.19
2019-04-19T14:50:12.689Z,32.21
2019-04-19T14:52:46.582Z,31.66
2019-04-19T14:55:21.147Z,31.46
2019-04-19T14:57:56.122Z,31.04
2019-04-19T15:00:30.689Z,30.85
2019-04-19T15:03:15.082Z,30.84
2019-04-19T15:05:50.415Z,30.51
2019-04-19T15:08:24.454Z,29.44
2019-04-19T15:10:58.137Z,28.60
2019-04-19T15:13:32.761Z,28.02
2019-04-19T15:16:06.958Z,27.46
2019-04-19T15:18:40.775Z,27.03
2019-04-19T15:21:17.572Z,26.70
2019-04-19T15:23:50.216Z,26.53
2019-04-19T15:26:24.914Z,26.36
2019-04-19T15:28:59.071Z,26.10
2019-04-19T15:31:32.868Z,25.90
2019-04-19T15:34:06.766Z,25.72
2019-04-19T15:36:41.579Z,25.58
2019-04-19T15:39:15.823Z,25.51
2019-04-19T15:41:50.658Z,25.23
2019-04-19T15:44:25.123Z,24.80
2019-04-19T15:46:59.910Z,24.71
2019-04-19T15:49:34.107Z,24.56
2019-04-19T15:52:08.131Z,24.45
2019-04-19T15:54:41.926Z,24.45
2019-04-19T15:57:16.379Z,24.32
2019-04-19T15:59:51.701Z,24.24
2019-04-19T16:02:36.177Z,24.14
2019-04-19T16:05:28.369Z,24.08
2019-04-19T16:08:24.768Z,23.93
2019-04-19T16:11:16.540Z,23.82
2019-04-19T16:13:50.227Z,23.73
2019-04-19T16:16:24.822Z,23.61
2019-04-19T16:18:58.700Z,23.55
2019-04-19T16:21:41.005Z,23.55
2019-04-19T16:24:09.106Z,23.50
2019-04-19T16:26:42.935Z,23.40
2019-04-19T16:29:30.479Z,23.22
2019-04-19T16:31:52.220Z,23.10
2019-04-19T16:34:27.162Z,23.03
2019-04-19T16:37:01.067Z,23.01
2019-04-19T16:39:35.521Z,22.95
2019-04-19T16:42:09.529Z,22.96
2019-04-19T16:44:43.704Z,22.88
2019-04-19T16:47:17.458Z,22.81
2019-04-19T16:49:52.187Z,22.65
2019-04-19T16:52:26.909Z,22.48
2019-04-19T16:55:00.793Z,22.40
2019-04-19T16:57:34.960Z,22.31
2019-04-19T17:00:10.965Z,22.19
2019-04-19T17:02:45.015Z,22.15
2019-04-19T17:05:18.922Z,22.11
2019-04-19T17:07:53.284Z,22.10
2019-04-19T17:10:27.028Z,21.99
2019-04-19T17:13:01.194Z,21.97
2019-04-19T17:15:52.906Z,21.90
2019-04-19T17:18:52.868Z,21.81
2019-04-19T17:21:28.167Z,21.66
2019-04-19T17:24:02.884Z,21.49
2019-04-19T17:26:37.318Z,21.46
2019-04-19T17:29:11.212Z,21.38
2019-04-19T17:31:45.268Z,21.26
2019-04-19T17:34:20.179Z,21.20
2019-04-19T17:36:53.967Z,21.05
2019-04-19T17:39:28.808Z,20.98
2019-04-19T17:42:02.570Z,20.87
2019-04-19T17:44:37.435Z,20.84
2019-04-19T17:47:13.208Z,20.99
2019-04-19T17:49:48.574Z,20.99
2019-04-19T17:52:27.153Z,20.89
2019-04-19T17:55:10.401Z,20.80
2019-04-19T17:57:34.053Z,20.72
2019-04-19T18:00:10.225Z,20.58
2019-04-19T18:02:44.097Z,20.51
2019-04-19T18:05:18.058Z,20.44
2019-04-19T18:07:52.536Z,20.28
2019-04-19T18:10:37.748Z,20.18
2019-04-19T18:13:03.422Z,20.08
2019-04-19T18:15:38.425Z,19.96
2019-04-19T18:18:13.687Z,19.82
2019-04-19T18:20:52.489Z,19.70
2019-04-19T18:23:34.757Z,19.64
2019-04-19T18:25:59.197Z,19.55
2019-04-19T18:28:38.074Z,19.44
2019-04-19T18:31:11.077Z,19.33
2019-04-19T18:33:58.903Z,19.20
2019-04-19T18:36:25.689Z,19.11
2019-04-19T18:39:00.294Z,18.97
2019-04-19T18:41:34.616Z,18.86
2019-04-19T18:44:18.709Z,18.76
2019-04-19T18:46:44.881Z,18.62
2019-04-19T18:49:18.693Z,18.50
2019-04-19T18:51:54.011Z,18.39
2019-04-19T18:54:42.276Z,18.28
2019-04-19T18:57:06.316Z,18.18
2019-04-19T18:59:39.110Z,18.13
2019-04-19T19:02:16.092Z,18.06
2019-04-19T19:04:48.703Z,17.95
2019-04-19T19:07:26.539Z,17.84
2019-04-19T19:10:02.625Z,17.76
2019-04-19T19:12:39.477Z,17.69
2019-04-19T19:15:12.542Z,17.63
2019-04-19T19:17:51.003Z,17.53
2019-04-19T19:20:27.669Z,17.43
2019-04-19T19:23:15.425Z,17.34
2019-04-19T19:25:48.292Z,17.24
2019-04-19T19:28:20.008Z,17.16
2019-04-19T19:30:53.557Z,17.08
2019-04-19T19:33:36.533Z,17.00
2019-04-19T19:36:03.922Z,16.90
2019-04-19T19:38:41.611Z,16.82
2019-04-19T19:41:35.202Z,16.75
2019-04-19T19:44:01.259Z,16.68
2019-04-19T19:46:55.780Z,16.59
2019-04-19T19:49:37.307Z,16.53
2019-04-19T19:51:50.062Z,16.46
2019-04-19T19:57:11.434Z,16.31
2019-04-19T19:59:33.327Z,16.23
2019-04-19T20:02:16.767Z,16.12
2019-04-19T20:04:41.240Z,16.03
2019-04-19T20:07:17.580Z,15.94
2019-04-19T20:09:53.895Z,15.84
2019-04-19T20:12:29.355Z,15.76
2019-04-19T20:15:02.919Z,15.67
2019-04-19T20:17:37.343Z,15.59
2019-04-19T20:20:12.182Z,15.54
2019-04-19T20:22:48.812Z,15.52
2019-04-19T20:25:32.489Z,15.49
2019-04-19T20:27:59.327Z,15.44
2019-04-19T20:30:37.952Z,15.39
2019-04-19T20:33:11.661Z,15.37
2019-04-19T20:35:53.946Z,15.34
2019-04-19T20:38:23.659Z,15.30
2019-04-19T20:40:59.846Z,15.27
2019-04-19T20:43:45.882Z,15.22
2019-04-19T20:46:15.923Z,15.12
2019-04-19T20:48:45.827Z,15.06
2019-04-19T20:51:35.385Z,14.99
2019-04-19T20:54:06.138Z,14.89
2019-04-19T20:57:04.373Z,14.79
2019-04-19T20:59:18.179Z,14.75
2019-04-19T21:01:52.815Z,14.68
2019-04-19T21:04:27.061Z,14.61
2019-04-19T21:07:07.972Z,14.54
2019-04-19T21:09:37.509Z,14.50
2019-04-19T21:12:17.088Z,14.41
2019-04-19T21:14:48.717Z,14.39
2019-04-19T21:17:26.267Z,14.34
2019-04-19T21:19:58.483Z,14.28
2019-04-19T21:22:36.412Z,14.22
2019-04-19T21:25:16.633Z,14.19
2019-04-19T21:27:49.195Z,14.16
2019-04-19T21:30:20.924Z,14.14
2019-04-19T21:33:04.384Z,14.08
2019-04-19T21:35:33.168Z,14.06
2019-04-19T21:38:14.244Z,14.08
2019-04-19T21:40:45.689Z,14.01
2019-04-19T21:43:23.432Z,13.98
2019-04-19T21:45:55.672Z,13.93
2019-04-19T21:48:34.785Z,13.89
2019-04-19T21:51:06.013Z,13.85
2019-04-19T21:53:43.973Z,13.72
2019-04-19T21:56:17.169Z,13.53
2019-04-19T21:58:54.378Z,13.39
2019-04-19T22:01:27.972Z,13.25
2019-04-19T22:04:08.539Z,13.11
2019-04-19T22:06:39.056Z,13.00
2019-04-19T22:09:19.283Z,12.91
2019-04-19T22:11:50.054Z,12.87
2019-04-19T22:14:29.347Z,12.83
2019-04-19T22:17:00.918Z,12.81
2019-04-19T22:19:39.057Z,12.79
2019-04-19T22:22:21.211Z,12.79
2019-04-19T22:24:51.139Z,12.76
2019-04-19T22:27:25.399Z,12.76
2019-04-19T22:29:59.803Z,12.78
2019-04-19T22:32:34.440Z,12.85
2019-04-19T22:35:15.136Z,12.83
2019-04-19T22:37:44.175Z,12.85
2019-04-19T22:40:18.811Z,12.83
2019-04-19T22:43:01.600Z,12.78
2019-04-19T22:45:28.756Z,12.72
2019-04-19T22:48:12.546Z,12.68
2019-04-19T22:50:40.484Z,12.65
2019-04-19T22:53:19.107Z,12.62
2019-04-19T22:55:59.227Z,12.58
2019-04-19T22:58:29.967Z,12.55
2019-04-19T23:01:03.186Z,12.51
2019-04-19T23:03:41.898Z,12.45
2019-04-19T23:06:20.731Z,12.43
2019-04-19T23:08:50.543Z,12.42
2019-04-19T23:11:25.717Z,12.39
2019-04-19T23:14:01.089Z,12.31
2019-04-19T23:16:43.604Z,12.25
2019-04-19T23:19:14.135Z,12.23
2019-04-19T23:21:48.422Z,12.14
2019-04-19T23:24:22.981Z,12.11
2019-04-19T23:27:09.649Z,12.07
2019-04-19T23:29:34.948Z,12.03
2019-04-19T23:32:09.051Z,12.00
2019-04-19T23:34:49.185Z,11.98
2019-04-19T23:37:19.604Z,11.97
2019-04-19T23:39:54.941Z,11.88
2019-04-19T23:42:29.734Z,11.83
2019-04-19T23:45:06.267Z,11.75
2019-04-19T23:47:44.920Z,11.68
2019-04-19T23:50:17.575Z,11.64
2019-04-19T23:52:56.231Z,11.62
2019-04-19T23:55:28.693Z,11.60
2019-04-19T23:58:03.085Z,11.62
